createdAt,value
2022-10-30T00:00:02.067Z,12.02
2022-10-30T00:03:14.569Z,11.92
2022-10-30T00:09:18.739Z,11.92
2022-10-30T00:12:20.965Z,11.95
2022-10-30T00:15:22.866Z,11.86
2022-10-30T00:18:25.097Z,11.98
2022-10-30T00:21:27.039Z,11.92
2022-10-30T00:24:29.363Z,11.89
2022-10-30T00:27:31.344Z,11.91
2022-10-30T00:30:34.218Z,12.00
2022-10-30T00:33:36.131Z,11.84
2022-10-30T00:36:39.177Z,11.82
2022-10-30T00:39:41.095Z,11.89
2022-10-30T00:42:43.384Z,11.93
2022-10-30T00:45:45.471Z,11.91
2022-10-30T00:48:54.568Z,11.82
2022-10-30T00:51:56.472Z,11.79
2022-10-30T00:55:01.836Z,11.71
2022-10-30T00:58:07.696Z,11.80
2022-10-30T01:01:13.210Z,11.80
2022-10-30T01:04:16.140Z,11.79
2022-10-30T01:07:19.496Z,11.85
2022-10-30T01:10:21.605Z,11.78
2022-10-30T01:13:24.358Z,11.78
2022-10-30T01:16:32.404Z,11.89
2022-10-30T01:19:44.361Z,11.78
2022-10-30T01:22:49.437Z,11.73
2022-10-30T01:25:58.997Z,11.76
2022-10-30T01:29:03.996Z,11.74
2022-10-30T01:32:22.713Z,11.71
2022-10-30T01:35:32.269Z,11.74
2022-10-30T01:38:36.884Z,11.79
2022-10-30T01:41:38.992Z,11.80
2022-10-30T01:44:41.381Z,11.78
2022-10-30T01:47:52.695Z,11.80
2022-10-30T01:51:15.239Z,11.74
2022-10-30T01:54:38.079Z,11.69
2022-10-30T01:57:44.309Z,11.67
2022-10-30T02:00:49.468Z,11.62
2022-10-30T02:03:52.037Z,11.71
2022-10-30T02:06:54.052Z,11.74
2022-10-30T02:09:56.547Z,11.72
2022-10-30T02:12:58.695Z,11.70
2022-10-30T02:16:01.091Z,11.84
2022-10-30T02:19:03.345Z,11.95
2022-10-30T02:22:05.709Z,11.85
2022-10-30T02:25:07.843Z,11.82
2022-10-30T02:28:10.081Z,11.79
2022-10-30T02:31:12.006Z,11.77
2022-10-30T02:34:17.305Z,11.83
2022-10-30T02:37:19.253Z,11.89
2022-10-30T02:40:21.660Z,11.83
2022-10-30T02:43:23.584Z,11.78
2022-10-30T02:46:25.813Z,11.84
2022-10-30T02:49:27.764Z,11.81
2022-10-30T02:52:29.977Z,11.83
2022-10-30T02:55:31.909Z,11.74
2022-10-30T02:58:34.198Z,11.74
2022-10-30T03:01:36.657Z,11.78
2022-10-30T03:04:39.063Z,11.69
2022-10-30T03:07:41.131Z,11.72
2022-10-30T03:10:43.367Z,11.75
2022-10-30T03:13:45.919Z,11.81
2022-10-30T03:16:48.161Z,11.75
2022-10-30T03:19:51.529Z,11.70
2022-10-30T03:22:53.976Z,11.85
2022-10-30T03:25:56.702Z,11.74
2022-10-30T03:29:00.127Z,11.75
2022-10-30T03:32:02.472Z,11.88
2022-10-30T03:35:05.274Z,11.87
2022-10-30T03:38:07.687Z,11.84
2022-10-30T03:41:09.896Z,11.72
2022-10-30T03:44:11.920Z,11.74
2022-10-30T03:47:14.226Z,11.79
2022-10-30T03:50:16.393Z,11.79
2022-10-30T03:53:18.614Z,11.83
2022-10-30T03:56:20.537Z,11.75
2022-10-30T03:59:26.458Z,11.76
2022-10-30T04:02:29.107Z,11.72
2022-10-30T04:05:31.506Z,11.82
2022-10-30T04:08:33.822Z,11.76
2022-10-30T04:11:37.159Z,11.74
2022-10-30T04:14:39.199Z,11.64
2022-10-30T04:17:48.266Z,11.60
2022-10-30T04:20:50.289Z,11.65
2022-10-30T04:23:53.943Z,11.70
2022-10-30T04:26:58.246Z,11.64
2022-10-30T04:30:00.589Z,11.65
2022-10-30T04:33:04.148Z,11.63
2022-10-30T04:36:06.611Z,11.75
2022-10-30T04:39:09.487Z,11.69
2022-10-30T04:42:12.352Z,11.92
2022-10-30T04:45:15.784Z,11.84
2022-10-30T04:48:18.483Z,11.83
2022-10-30T04:51:21.666Z,11.77
2022-10-30T04:54:23.877Z,11.84
2022-10-30T04:57:26.602Z,11.59
2022-10-30T05:00:29.846Z,11.73
2022-10-30T05:03:32.955Z,11.87
2022-10-30T05:06:35.382Z,11.84
2022-10-30T05:09:37.377Z,11.74
2022-10-30T05:12:39.582Z,11.60
2022-10-30T05:15:41.564Z,11.70
2022-10-30T05:18:44.047Z,11.61
2022-10-30T05:21:46.242Z,11.67
2022-10-30T05:24:48.621Z,11.69
2022-10-30T05:27:51.046Z,11.61
2022-10-30T05:30:54.175Z,11.61
2022-10-30T05:33:58.666Z,11.63
2022-10-30T05:37:01.912Z,11.57
2022-10-30T05:40:04.347Z,11.46
2022-10-30T05:43:06.615Z,11.66
2022-10-30T05:46:09.646Z,11.59
2022-10-30T05:49:12.245Z,11.57
2022-10-30T05:52:15.076Z,11.50
2022-10-30T05:55:17.503Z,11.36
2022-10-30T05:58:20.052Z,11.47
2022-10-30T06:01:22.875Z,11.46
2022-10-30T06:04:25.549Z,11.55
2022-10-30T06:07:27.558Z,11.55
2022-10-30T06:10:30.104Z,11.65
2022-10-30T06:13:32.841Z,11.61
2022-10-30T06:16:35.381Z,11.71
2022-10-30T06:19:38.633Z,11.64
2022-10-30T06:22:41.720Z,11.59
2022-10-30T06:25:44.341Z,11.66
2022-10-30T06:28:47.068Z,11.72
2022-10-30T06:31:49.374Z,11.76
2022-10-30T06:34:52.027Z,11.68
2022-10-30T06:37:55.189Z,11.65
2022-10-30T06:40:58.538Z,11.91
2022-10-30T06:44:00.578Z,12.01
2022-10-30T06:47:04.978Z,11.91
2022-10-30T06:50:08.191Z,11.92
2022-10-30T06:53:10.916Z,11.97
2022-10-30T06:56:13.108Z,11.94
2022-10-30T06:59:15.650Z,11.93
2022-10-30T07:02:17.914Z,12.08
2022-10-30T07:05:20.528Z,12.04
2022-10-30T07:08:22.500Z,12.07
2022-10-30T07:11:24.879Z,12.04
2022-10-30T07:14:28.765Z,12.09
2022-10-30T07:17:33.288Z,12.19
2022-10-30T07:20:36.011Z,12.23
2022-10-30T07:23:38.985Z,12.22
2022-10-30T07:26:42.379Z,12.30
2022-10-30T07:29:47.932Z,12.45
2022-10-30T07:33:01.773Z,12.48
2022-10-30T07:36:05.406Z,12.47
2022-10-30T07:39:09.543Z,12.44
2022-10-30T07:42:12.375Z,12.47
2022-10-30T07:45:14.657Z,12.54
2022-10-30T07:48:28.330Z,12.48
2022-10-30T07:51:30.777Z,12.54
2022-10-30T07:54:33.246Z,12.70
2022-10-30T07:57:37.103Z,12.79
2022-10-30T08:00:40.313Z,12.69
2022-10-30T08:03:43.108Z,12.75
2022-10-30T08:06:45.241Z,12.49
2022-10-30T08:09:48.245Z,12.64
2022-10-30T08:12:51.531Z,12.85
2022-10-30T08:15:53.727Z,12.77
2022-10-30T08:18:55.857Z,12.90
2022-10-30T08:22:00.016Z,12.88
2022-10-30T08:25:02.487Z,13.05
2022-10-30T08:28:06.818Z,13.03
2022-10-30T08:31:09.862Z,12.98
2022-10-30T08:34:17.101Z,12.91
2022-10-30T08:37:19.293Z,13.08
2022-10-30T08:40:21.575Z,13.21
2022-10-30T08:43:25.268Z,13.22
2022-10-30T08:46:27.986Z,13.30
2022-10-30T08:49:30.033Z,13.36
2022-10-30T08:52:32.667Z,13.43
2022-10-30T08:55:36.037Z,13.54
2022-10-30T08:58:38.669Z,13.49
2022-10-30T09:01:40.986Z,13.40
2022-10-30T09:04:46.796Z,13.25
2022-10-30T09:07:55.026Z,13.39
2022-10-30T09:11:00.883Z,13.40
2022-10-30T09:14:03.294Z,13.42
2022-10-30T09:17:05.477Z,13.54
2022-10-30T09:20:07.859Z,13.46
2022-10-30T09:23:10.366Z,13.67
2022-10-30T09:26:16.813Z,13.69
2022-10-30T09:29:23.087Z,13.71
2022-10-30T09:32:26.805Z,13.68
2022-10-30T09:35:29.812Z,13.91
2022-10-30T09:38:31.788Z,14.09
2022-10-30T09:41:40.409Z,14.07
2022-10-30T09:45:08.164Z,13.86
2022-10-30T09:48:16.240Z,13.90
2022-10-30T09:51:19.737Z,13.92
2022-10-30T09:54:44.339Z,14.04
2022-10-30T09:58:05.207Z,14.12
2022-10-30T10:01:13.947Z,14.24
2022-10-30T10:04:26.917Z,14.39
2022-10-30T10:07:35.330Z,14.52
2022-10-30T10:10:40.778Z,14.53
2022-10-30T10:13:45.832Z,14.22
2022-10-30T10:16:55.515Z,14.14
2022-10-30T10:20:01.463Z,13.83
2022-10-30T10:23:11.635Z,14.13
2022-10-30T10:26:23.023Z,14.31
2022-10-30T10:29:27.916Z,14.47
2022-10-30T10:32:35.820Z,14.58
2022-10-30T10:35:47.141Z,14.56
2022-10-30T10:39:07.917Z,14.57
2022-10-30T10:42:24.568Z,14.70
2022-10-30T10:45:45.436Z,14.75
2022-10-30T10:48:56.565Z,14.69
2022-10-30T10:52:04.340Z,14.86
2022-10-30T10:55:26.871Z,14.72
2022-10-30T10:58:34.538Z,15.19
2022-10-30T11:01:38.803Z,15.30
2022-10-30T11:04:41.887Z,15.42
2022-10-30T11:07:48.722Z,15.41
2022-10-30T11:11:01.398Z,15.54
2022-10-30T11:14:08.718Z,15.50
2022-10-30T11:17:19.987Z,15.55
2022-10-30T11:20:28.077Z,15.53
2022-10-30T11:23:40.703Z,15.70
2022-10-30T11:26:42.929Z,15.74
2022-10-30T11:30:00.192Z,15.96
2022-10-30T11:33:21.045Z,15.69
2022-10-30T11:36:25.347Z,15.26
2022-10-30T11:39:32.316Z,15.44
2022-10-30T11:42:35.189Z,15.10
2022-10-30T11:45:41.479Z,15.40
2022-10-30T11:48:44.147Z,15.57
2022-10-30T11:51:47.786Z,15.37
2022-10-30T11:54:55.714Z,15.01
2022-10-30T11:57:58.949Z,15.03
2022-10-30T12:01:05.424Z,15.23
2022-10-30T12:04:15.977Z,15.56
2022-10-30T12:07:26.312Z,15.50
2022-10-30T12:10:29.663Z,15.54
2022-10-30T12:13:34.041Z,15.61
2022-10-30T12:16:36.277Z,15.77
2022-10-30T12:19:38.238Z,15.72
2022-10-30T12:22:41.705Z,15.80
2022-10-30T12:25:47.227Z,15.82
2022-10-30T12:28:53.802Z,15.64
2022-10-30T12:31:58.098Z,15.31
2022-10-30T12:35:03.360Z,14.93
2022-10-30T12:38:17.457Z,14.81
2022-10-30T12:41:31.451Z,14.69
2022-10-30T12:44:39.032Z,14.99
2022-10-30T12:47:45.525Z,15.44
2022-10-30T12:50:52.398Z,15.30
2022-10-30T12:54:02.455Z,15.12
2022-10-30T12:57:11.407Z,15.19
2022-10-30T13:00:15.983Z,15.19
2022-10-30T13:03:27.512Z,15.14
2022-10-30T13:06:32.737Z,15.23
2022-10-30T13:09:38.272Z,15.22
2022-10-30T13:12:43.001Z,15.04
2022-10-30T13:15:47.548Z,14.91
2022-10-30T13:18:52.661Z,14.66
2022-10-30T13:22:02.663Z,14.95
2022-10-30T13:25:14.323Z,15.02
2022-10-30T13:28:23.016Z,14.78
2022-10-30T13:31:31.293Z,14.67
2022-10-30T13:34:42.095Z,14.94
2022-10-30T13:38:03.255Z,14.88
2022-10-30T13:41:19.801Z,14.85
2022-10-30T13:44:41.021Z,14.81
2022-10-30T13:47:42.977Z,14.83
2022-10-30T13:51:04.908Z,14.77
2022-10-30T13:54:13.826Z,14.68
2022-10-30T13:57:23.734Z,14.56
2022-10-30T14:00:34.933Z,14.60
2022-10-30T14:03:55.828Z,14.50
2022-10-30T14:06:57.695Z,14.54
2022-10-30T14:10:08.836Z,14.45
2022-10-30T14:13:21.056Z,14.35
2022-10-30T14:16:43.512Z,14.42
2022-10-30T14:20:07.318Z,14.48
2022-10-30T14:23:15.296Z,14.42
2022-10-30T14:26:20.562Z,14.53
2022-10-30T14:29:35.514Z,14.47
2022-10-30T14:32:39.206Z,14.44
2022-10-30T14:35:41.558Z,14.50
2022-10-30T14:38:51.861Z,14.33
2022-10-30T14:42:00.474Z,14.16
2022-10-30T14:45:14.374Z,14.16
2022-10-30T14:48:26.645Z,14.22
2022-10-30T14:51:34.802Z,14.11
2022-10-30T14:54:42.742Z,14.01
2022-10-30T14:57:48.072Z,13.86
2022-10-30T15:00:52.469Z,13.79
2022-10-30T15:04:09.886Z,13.67
2022-10-30T15:07:24.030Z,13.68
2022-10-30T15:10:31.452Z,13.55
2022-10-30T15:13:33.786Z,13.35
2022-10-30T15:16:38.181Z,13.20
2022-10-30T15:19:40.720Z,13.16
2022-10-30T15:22:42.705Z,13.04
2022-10-30T15:25:50.288Z,12.82
2022-10-30T15:28:53.081Z,12.78
2022-10-30T15:32:02.564Z,12.64
2022-10-30T15:35:05.262Z,12.51
2022-10-30T15:38:09.588Z,12.42
2022-10-30T15:41:11.693Z,12.29
2022-10-30T15:47:20.907Z,12.18
2022-10-30T15:50:23.207Z,12.11
2022-10-30T15:53:27.185Z,11.98
2022-10-30T15:56:32.461Z,11.98
2022-10-30T15:59:35.194Z,11.96
2022-10-30T16:02:38.303Z,12.09
2022-10-30T16:05:40.722Z,12.22
2022-10-30T16:08:43.947Z,12.21
2022-10-30T16:11:47.016Z,12.23
2022-10-30T16:14:52.291Z,12.19
2022-10-30T16:18:03.205Z,12.31
2022-10-30T16:21:06.913Z,12.39
2022-10-30T16:24:09.924Z,12.44
2022-10-30T16:27:16.333Z,12.43
2022-10-30T16:30:18.562Z,12.47
2022-10-30T16:33:23.881Z,12.52
2022-10-30T16:36:26.301Z,12.55
2022-10-30T16:39:28.859Z,12.73
2022-10-30T16:42:31.143Z,12.83
2022-10-30T16:45:33.865Z,12.73
2022-10-30T16:48:36.125Z,12.76
2022-10-30T16:51:38.991Z,12.78
2022-10-30T16:54:46.787Z,12.77
2022-10-30T16:57:53.493Z,12.84
2022-10-30T17:01:01.044Z,12.93
2022-10-30T17:04:04.180Z,12.96
2022-10-30T17:07:20.407Z,12.96
2022-10-30T17:10:32.899Z,12.96
2022-10-30T17:13:39.020Z,12.97
2022-10-30T17:16:41.004Z,12.93
2022-10-30T17:19:47.347Z,12.97
2022-10-30T17:22:51.114Z,12.89
2022-10-30T17:25:54.928Z,12.90
2022-10-30T17:28:56.836Z,12.95
2022-10-30T17:31:59.024Z,12.97
2022-10-30T17:35:01.966Z,12.89
2022-10-30T17:38:04.592Z,12.88
2022-10-30T17:41:08.172Z,12.89
2022-10-30T17:44:18.985Z,12.85
2022-10-30T17:47:20.994Z,12.74
2022-10-30T17:50:23.228Z,12.80
2022-10-30T17:53:25.648Z,12.72
2022-10-30T17:56:29.847Z,12.79
2022-10-30T17:59:31.791Z,12.82
2022-10-30T18:02:34.036Z,12.82
2022-10-30T18:05:36.729Z,12.77
2022-10-30T18:08:38.635Z,12.69
2022-10-30T18:11:40.832Z,12.77
2022-10-30T18:14:43.238Z,12.78
2022-10-30T18:17:45.496Z,12.71
2022-10-30T18:20:47.488Z,12.73
2022-10-30T18:23:52.778Z,12.58
2022-10-30T18:26:55.570Z,12.50
2022-10-30T18:29:57.777Z,12.42
2022-10-30T18:32:59.949Z,12.60
2022-10-30T18:36:02.415Z,12.61
2022-10-30T18:39:04.384Z,12.59
2022-10-30T18:42:08.746Z,12.53
2022-10-30T18:45:21.627Z,12.48
2022-10-30T18:48:23.789Z,12.46
2022-10-30T18:51:26.557Z,12.44
2022-10-30T18:54:28.856Z,12.49
2022-10-30T18:57:30.739Z,12.44
2022-10-30T19:00:45.052Z,12.51
2022-10-30T19:03:55.708Z,12.47
2022-10-30T19:06:58.258Z,12.53
2022-10-30T19:10:01.474Z,12.47
2022-10-30T19:13:14.868Z,12.53
2022-10-30T19:16:18.947Z,12.52
2022-10-30T19:19:21.091Z,12.44
2022-10-30T19:22:22.997Z,12.38
2022-10-30T19:25:27.476Z,12.43
2022-10-30T19:28:30.789Z,12.44
2022-10-30T19:31:33.171Z,12.37
2022-10-30T19:34:35.092Z,12.35
2022-10-30T19:37:37.357Z,12.43
2022-10-30T19:40:39.941Z,12.35
2022-10-30T19:43:42.169Z,12.34
2022-10-30T19:46:44.105Z,12.29
2022-10-30T19:49:46.318Z,12.40
2022-10-30T19:52:48.620Z,12.34
2022-10-30T19:55:50.863Z,12.38
2022-10-30T19:58:52.856Z,12.41
2022-10-30T20:01:55.210Z,12.20
2022-10-30T20:04:57.557Z,12.22
2022-10-30T20:07:59.798Z,12.17
2022-10-30T20:11:02.279Z,12.07
2022-10-30T20:14:04.173Z,12.01
2022-10-30T20:17:06.436Z,12.05
2022-10-30T20:20:12.954Z,12.05
2022-10-30T20:23:15.198Z,12.05
2022-10-30T20:26:25.875Z,12.08
2022-10-30T20:29:28.610Z,11.99
2022-10-30T20:32:30.550Z,11.96
2022-10-30T20:35:32.824Z,11.97
2022-10-30T20:38:34.769Z,12.00
2022-10-30T20:41:38.644Z,11.98
2022-10-30T20:44:40.487Z,11.91
2022-10-30T20:47:42.718Z,11.96
2022-10-30T20:50:49.142Z,11.86
2022-10-30T20:53:53.093Z,11.83
2022-10-30T20:56:55.178Z,11.78
2022-10-30T20:59:57.390Z,11.77
2022-10-30T21:03:01.277Z,11.75
2022-10-30T21:06:03.624Z,11.81
2022-10-30T21:09:05.568Z,11.75
2022-10-30T21:12:07.979Z,11.75
2022-10-30T21:15:10.012Z,11.77
2022-10-30T21:18:13.137Z,11.87
2022-10-30T21:21:21.469Z,11.84
2022-10-30T21:24:26.897Z,11.84
2022-10-30T21:27:28.921Z,12.02
2022-10-30T21:30:31.141Z,11.93
2022-10-30T21:33:33.728Z,11.90
2022-10-30T21:36:36.206Z,11.95
2022-10-30T21:39:38.162Z,12.00
2022-10-30T21:42:40.337Z,11.96
2022-10-30T21:45:42.215Z,11.95
2022-10-30T21:48:44.399Z,11.92
2022-10-30T21:51:48.521Z,11.82
2022-10-30T21:54:50.763Z,11.93
2022-10-30T21:57:52.695Z,11.93
2022-10-30T22:00:54.936Z,11.87
2022-10-30T22:04:00.682Z,11.79
2022-10-30T22:07:02.585Z,11.79
2022-10-30T22:10:05.074Z,11.88
2022-10-30T22:13:07.108Z,12.04
2022-10-30T22:16:11.103Z,11.96
2022-10-30T22:19:13.039Z,11.84
2022-10-30T22:22:15.275Z,11.87
2022-10-30T22:25:17.226Z,11.86
2022-10-30T22:28:19.466Z,11.88
2022-10-30T22:31:22.076Z,11.81
2022-10-30T22:34:24.285Z,11.79
2022-10-30T22:37:26.196Z,11.75
2022-10-30T22:40:28.484Z,11.81
2022-10-30T22:43:30.387Z,11.71
2022-10-30T22:46:32.628Z,11.73
2022-10-30T22:49:34.549Z,11.78
2022-10-30T22:52:36.853Z,11.65
2022-10-30T22:55:38.738Z,11.65
2022-10-30T22:58:41.365Z,11.71
2022-10-30T23:01:43.401Z,11.68
2022-10-30T23:04:45.653Z,11.69
2022-10-30T23:07:47.545Z,11.72
2022-10-30T23:10:53.475Z,11.63
2022-10-30T23:13:55.545Z,11.60
2022-10-30T23:16:57.766Z,11.63
2022-10-30T23:19:59.665Z,11.66
2022-10-30T23:23:03.847Z,11.67
2022-10-30T23:26:07.157Z,11.61
2022-10-30T23:29:09.497Z,11.51
2022-10-30T23:32:11.475Z,11.50
2022-10-30T23:35:13.721Z,11.58
2022-10-30T23:38:15.654Z,11.51
2022-10-30T23:41:17.953Z,11.51
2022-10-30T23:44:20.062Z,11.46
2022-10-30T23:47:22.315Z,11.49
2022-10-30T23:50:24.286Z,11.56
2022-10-30T23:53:26.538Z,11.46
2022-10-30T23:56:29.475Z,11.46
2022-10-30T23:59:31.723Z,11.48
